sensor_id;sensor_type;location;lat;lon;timestamp;P1;durP1;ratioP1;P2;durP2;ratioP2
72785;SDS011;60902;53.876;10.674;2023-07-30T00:00:10;6.00;;;3.40;;
72785;SDS011;60902;53.876;10.674;2023-07-30T00:00:22;6.30;;;3.35;;
72785;SDS011;60902;53.876;10.674;2023-07-30T00:00:34;6.20;;;3.40;;
72785;SDS011;60902;53.876;10.674;2023-07-30T00:00:48;6.30;;;3.60;;
72785;SDS011;60902;53.876;10.674;2023-07-30T00:00:59;5.97;;;3.45;;
72785;SDS011;60902;53.876;10.674;2023-07-30T00:01:10;6.38;;;3.60;;
72785;SDS011;60902;53.876;10.674;2023-07-30T00:01:21;6.37;;;3.87;;
72785;SDS011;60902;53.876;10.674;2023-07-30T00:01:31;7.57;;;4.40;;
72785;SDS011;60902;53.876;10.674;2023-07-30T00:01:43;7.22;;;3.97;;
72785;SDS011;60902;53.876;10.674;2023-07-30T00:01:54;7.28;;;3.78;;
72785;SDS011;60902;53.876;10.674;2023-07-30T00:02:04;7.05;;;3.70;;
72785;SDS011;60902;53.876;10.674;2023-07-30T00:02:15;7.30;;;4.10;;
72785;SDS011;60902;53.876;10.674;2023-07-30T00:02:26;6.85;;;4.13;;
72785;SDS011;60902;53.876;10.674;2023-07-30T00:02:37;6.75;;;4.13;;
72785;SDS011;60902;53.876;10.674;2023-07-30T00:02:49;6.65;;;3.80;;
72785;SDS011;60902;53.876;10.674;2023-07-30T00:03:00;6.90;;;3.57;;
72785;SDS011;60902;53.876;10.674;2023-07-30T00:03:11;6.45;;;3.53;;
72785;SDS011;60902;53.876;10.674;2023-07-30T00:03:22;6.57;;;3.50;;
72785;SDS011;60902;53.876;10.674;2023-07-30T00:03:32;6.38;;;3.60;;
72785;SDS011;60902;53.876;10.674;2023-07-30T00:03:43;6.50;;;3.70;;
72785;SDS011;60902;53.876;10.674;2023-07-30T00:03:54;6.80;;;4.18;;
72785;SDS011;60902;53.876;10.674;2023-07-30T00:04:05;7.43;;;4.13;;
72785;SDS011;60902;53.876;10.674;2023-07-30T00:04:16;7.30;;;4.03;;
72785;SDS011;60902;53.876;10.674;2023-07-30T00:04:27;6.80;;;3.67;;
72785;SDS011;60902;53.876;10.674;2023-07-30T00:04:38;6.45;;;3.60;;
72785;SDS011;60902;53.876;10.674;2023-07-30T00:04:49;6.20;;;3.45;;
72785;SDS011;60902;53.876;10.674;2023-07-30T00:05:00;6.43;;;3.60;;
72785;SDS011;60902;53.876;10.674;2023-07-30T00:05:11;6.15;;;3.42;;
72785;SDS011;60902;53.876;10.674;2023-07-30T00:05:22;6.60;;;3.50;;
72785;SDS011;60902;53.876;10.674;2023-07-30T00:05:32;7.37;;;3.90;;
72785;SDS011;60902;53.876;10.674;2023-07-30T00:05:51;7.72;;;4.30;;
72785;SDS011;60902;53.876;10.674;2023-07-30T00:06:02;7.47;;;4.45;;
72785;SDS011;60902;53.876;10.674;2023-07-30T00:06:13;7.47;;;4.40;;
72785;SDS011;60902;53.876;10.674;2023-07-30T00:06:25;7.45;;;4.47;;
72785;SDS011;60902;53.876;10.674;2023-07-30T00:06:36;6.87;;;4.30;;
72785;SDS011;60902;53.876;10.674;2023-07-30T00:06:47;6.75;;;4.32;;
72785;SDS011;60902;53.876;10.674;2023-07-30T00:06:57;6.75;;;4.20;;
72785;SDS011;60902;53.876;10.674;2023-07-30T00:07:08;6.70;;;4.15;;
72785;SDS011;60902;53.876;10.674;2023-07-30T00:07:19;6.82;;;3.90;;
72785;SDS011;60902;53.876;10.674;2023-07-30T00:07:30;7.00;;;3.88;;
72785;SDS011;60902;53.876;10.674;2023-07-30T00:07:41;7.47;;;3.80;;
72785;SDS011;60902;53.876;10.674;2023-07-30T00:07:52;7.40;;;3.77;;
72785;SDS011;60902;53.876;10.674;2023-07-30T00:08:04;7.05;;;3.78;;
72785;SDS011;60902;53.876;10.674;2023-07-30T00:08:14;6.85;;;3.88;;
72785;SDS011;60902;53.876;10.674;2023-07-30T00:08:26;6.75;;;3.90;;
72785;SDS011;60902;53.876;10.674;2023-07-30T00:08:37;6.47;;;3.83;;
72785;SDS011;60902;53.876;10.674;2023-07-30T00:08:48;6.17;;;3.57;;
72785;SDS011;60902;53.876;10.674;2023-07-30T00:08:59;6.00;;;3.38;;
72785;SDS011;60902;53.876;10.674;2023-07-30T00:09:10;6.07;;;3.53;;
72785;SDS011;60902;53.876;10.674;2023-07-30T00:09:21;6.22;;;3.55;;
72785;SDS011;60902;53.876;10.674;2023-07-30T00:09:31;6.32;;;3.67;;
72785;SDS011;60902;53.876;10.674;2023-07-30T00:09:42;6.07;;;3.50;;
72785;SDS011;60902;53.876;10.674;2023-07-30T00:09:53;5.90;;;3.40;;
72785;SDS011;60902;53.876;10.674;2023-07-30T00:10:04;6.63;;;3.72;;
72785;SDS011;60902;53.876;10.674;2023-07-30T00:10:16;8.20;;;4.13;;
72785;SDS011;60902;53.876;10.674;2023-07-30T00:10:27;8.65;;;4.60;;
72785;SDS011;60902;53.876;10.674;2023-07-30T00:10:39;7.93;;;4.68;;
72785;SDS011;60902;53.876;10.674;2023-07-30T00:10:50;7.75;;;4.85;;
72785;SDS011;60902;53.876;10.674;2023-07-30T00:11:01;7.90;;;4.77;;
72785;SDS011;60902;53.876;10.674;2023-07-30T00:11:11;7.97;;;4.97;;
72785;SDS011;60902;53.876;10.674;2023-07-30T00:11:22;8.05;;;5.00;;
72785;SDS011;60902;53.876;10.674;2023-07-30T00:11:33;8.00;;;5.30;;
72785;SDS011;60902;53.876;10.674;2023-07-30T00:11:44;8.93;;;5.65;;
72785;SDS011;60902;53.876;10.674;2023-07-30T00:11:55;8.83;;;5.37;;
72785;SDS011;60902;53.876;10.674;2023-07-30T00:12:06;8.48;;;5.05;;
72785;SDS011;60902;53.876;10.674;2023-07-30T00:12:19;7.47;;;4.57;;
72785;SDS011;60902;53.876;10.674;2023-07-30T00:12:30;7.43;;;4.53;;
72785;SDS011;60902;53.876;10.674;2023-07-30T00:12:41;7.22;;;4.40;;
72785;SDS011;60902;53.876;10.674;2023-07-30T00:12:52;7.00;;;4.20;;
72785;SDS011;60902;53.876;10.674;2023-07-30T00:13:03;7.88;;;4.28;;
72785;SDS011;60902;53.876;10.674;2023-07-30T00:13:13;7.63;;;4.13;;
72785;SDS011;60902;53.876;10.674;2023-07-30T00:13:24;7.25;;;3.97;;
72785;SDS011;60902;53.876;10.674;2023-07-30T00:13:36;6.18;;;3.78;;
72785;SDS011;60902;53.876;10.674;2023-07-30T00:13:46;6.30;;;3.60;;
72785;SDS011;60902;53.876;10.674;2023-07-30T00:13:58;6.57;;;3.83;;
72785;SDS011;60902;53.876;10.674;2023-07-30T00:14:09;7.17;;;4.00;;
72785;SDS011;60902;53.876;10.674;2023-07-30T00:14:20;7.28;;;4.03;;
72785;SDS011;60902;53.876;10.674;2023-07-30T00:14:31;7.25;;;3.90;;
72785;SDS011;60902;53.876;10.674;2023-07-30T00:14:42;7.25;;;4.00;;
72785;SDS011;60902;53.876;10.674;2023-07-30T00:14:53;7.05;;;3.95;;
72785;SDS011;60902;53.876;10.674;2023-07-30T00:15:04;7.05;;;4.00;;
72785;SDS011;60902;53.876;10.674;2023-07-30T00:15:16;6.78;;;3.88;;
72785;SDS011;60902;53.876;10.674;2023-07-30T00:15:27;7.53;;;4.28;;
72785;SDS011;60902;53.876;10.674;2023-07-30T00:15:40;8.35;;;4.50;;
72785;SDS011;60902;53.876;10.674;2023-07-30T00:15:51;8.45;;;4.32;;
72785;SDS011;60902;53.876;10.674;2023-07-30T00:16:02;7.28;;;4.03;;
72785;SDS011;60902;53.876;10.674;2023-07-30T00:16:13;6.43;;;3.83;;
72785;SDS011;60902;53.876;10.674;2023-07-30T00:16:25;6.07;;;3.65;;
72785;SDS011;60902;53.876;10.674;2023-07-30T00:16:36;6.90;;;3.88;;
72785;SDS011;60902;53.876;10.674;2023-07-30T00:16:46;7.68;;;4.22;;
72785;SDS011;60902;53.876;10.674;2023-07-30T00:16:57;8.20;;;4.53;;
72785;SDS011;60902;53.876;10.674;2023-07-30T00:17:08;7.63;;;4.32;;
72785;SDS011;60902;53.876;10.674;2023-07-30T00:17:19;6.88;;;4.03;;
72785;SDS011;60902;53.876;10.674;2023-07-30T00:17:31;7.18;;;3.95;;
72785;SDS011;60902;53.876;10.674;2023-07-30T00:17:42;7.37;;;4.00;;
72785;SDS011;60902;53.876;10.674;2023-07-30T00:17:52;7.78;;;4.30;;
72785;SDS011;60902;53.876;10.674;2023-07-30T00:18:03;7.85;;;4.65;;
72785;SDS011;60902;53.876;10.674;2023-07-30T00:18:14;7.78;;;4.63;;
72785;SDS011;60902;53.876;10.674;2023-07-30T00:18:26;7.80;;;4.57;;
72785;SDS011;60902;53.876;10.674;2023-07-30T00:18:36;7.28;;;4.30;;
72785;SDS011;60902;53.876;10.674;2023-07-30T00:18:47;6.63;;;4.22;;
72785;SDS011;60902;53.876;10.674;2023-07-30T00:18:58;6.47;;;4.07;;
72785;SDS011;60902;53.876;10.674;2023-07-30T00:19:10;6.50;;;4.20;;
72785;SDS011;60902;53.876;10.674;2023-07-30T00:19:21;6.60;;;4.10;;
72785;SDS011;60902;53.876;10.674;2023-07-30T00:19:32;6.88;;;4.40;;
72785;SDS011;60902;53.876;10.674;2023-07-30T00:19:43;7.57;;;4.53;;
72785;SDS011;60902;53.876;10.674;2023-07-30T00:19:54;8.03;;;4.60;;
72785;SDS011;60902;53.876;10.674;2023-07-30T00:20:06;8.25;;;4.53;;
72785;SDS011;60902;53.876;10.674;2023-07-30T00:20:17;7.90;;;4.55;;
72785;SDS011;60902;53.876;10.674;2023-07-30T00:20:28;7.27;;;4.33;;
72785;SDS011;60902;53.876;10.674;2023-07-30T00:20:39;6.68;;;4.40;;
72785;SDS011;60902;53.876;10.674;2023-07-30T00:20:50;6.80;;;4.50;;
72785;SDS011;60902;53.876;10.674;2023-07-30T00:21:02;7.25;;;4.80;;
72785;SDS011;60902;53.876;10.674;2023-07-30T00:21:13;7.53;;;5.18;;
72785;SDS011;60902;53.876;10.674;2023-07-30T00:21:24;7.45;;;5.10;;
72785;SDS011;60902;53.876;10.674;2023-07-30T00:21:35;7.47;;;5.05;;
72785;SDS011;60902;53.876;10.674;2023-07-30T00:21:45;7.53;;;4.73;;
72785;SDS011;60902;53.876;10.674;2023-07-30T00:21:56;7.43;;;4.75;;
72785;SDS011;60902;53.876;10.674;2023-07-30T00:22:07;7.63;;;4.90;;
72785;SDS011;60902;53.876;10.674;2023-07-30T00:22:18;8.40;;;5.20;;
72785;SDS011;60902;53.876;10.674;2023-07-30T00:22:29;8.38;;;4.97;;
72785;SDS011;60902;53.876;10.674;2023-07-30T00:22:40;8.00;;;4.80;;
72785;SDS011;60902;53.876;10.674;2023-07-30T00:22:50;7.35;;;4.50;;
72785;SDS011;60902;53.876;10.674;2023-07-30T00:23:02;7.40;;;4.30;;
72785;SDS011;60902;53.876;10.674;2023-07-30T00:23:13;7.38;;;4.50;;
72785;SDS011;60902;53.876;10.674;2023-07-30T00:23:24;7.57;;;4.90;;
72785;SDS011;60902;53.876;10.674;2023-07-30T00:23:35;7.38;;;5.00;;
72785;SDS011;60902;53.876;10.674;2023-07-30T00:23:46;7.93;;;5.15;;
72785;SDS011;60902;53.876;10.674;2023-07-30T00:23:56;8.13;;;5.13;;
72785;SDS011;60902;53.876;10.674;2023-07-30T00:24:08;8.27;;;5.03;;
72785;SDS011;60902;53.876;10.674;2023-07-30T00:24:19;8.20;;;4.82;;
72785;SDS011;60902;53.876;10.674;2023-07-30T00:24:30;8.02;;;4.88;;
72785;SDS011;60902;53.876;10.674;2023-07-30T00:24:40;7.88;;;5.05;;
72785;SDS011;60902;53.876;10.674;2023-07-30T00:24:51;7.90;;;5.00;;
72785;SDS011;60902;53.876;10.674;2023-07-30T00:25:03;8.10;;;5.00;;
72785;SDS011;60902;53.876;10.674;2023-07-30T00:25:15;7.88;;;4.97;;
72785;SDS011;60902;53.876;10.674;2023-07-30T00:25:26;8.05;;;5.20;;
72785;SDS011;60902;53.876;10.674;2023-07-30T00:25:37;7.90;;;4.88;;
72785;SDS011;60902;53.876;10.674;2023-07-30T00:25:47;7.70;;;4.63;;
72785;SDS011;60902;53.876;10.674;2023-07-30T00:25:58;7.27;;;4.40;;
72785;SDS011;60902;53.876;10.674;2023-07-30T00:26:09;7.32;;;4.60;;
72785;SDS011;60902;53.876;10.674;2023-07-30T00:26:20;7.25;;;4.43;;
72785;SDS011;60902;53.876;10.674;2023-07-30T00:26:31;7.03;;;4.22;;
72785;SDS011;60902;53.876;10.674;2023-07-30T00:26:42;7.30;;;4.18;;
72785;SDS011;60902;53.876;10.674;2023-07-30T00:26:53;7.20;;;4.37;;
72785;SDS011;60902;53.876;10.674;2023-07-30T00:27:05;7.85;;;4.43;;
72785;SDS011;60902;53.876;10.674;2023-07-30T00:27:16;7.85;;;4.15;;
72785;SDS011;60902;53.876;10.674;2023-07-30T00:27:27;8.20;;;4.25;;
72785;SDS011;60902;53.876;10.674;2023-07-30T00:27:38;7.27;;;4.10;;
72785;SDS011;60902;53.876;10.674;2023-07-30T00:27:49;7.45;;;4.30;;
72785;SDS011;60902;53.876;10.674;2023-07-30T00:28:00;7.03;;;4.32;;
72785;SDS011;60902;53.876;10.674;2023-07-30T00:28:11;7.45;;;4.40;;
72785;SDS011;60902;53.876;10.674;2023-07-30T00:28:22;7.47;;;4.43;;
72785;SDS011;60902;53.876;10.674;2023-07-30T00:28:33;7.50;;;4.30;;
72785;SDS011;60902;53.876;10.674;2023-07-30T00:28:43;7.70;;;4.35;;
72785;SDS011;60902;53.876;10.674;2023-07-30T00:28:54;8.05;;;4.60;;
72785;SDS011;60902;53.876;10.674;2023-07-30T00:29:06;7.95;;;4.75;;
72785;SDS011;60902;53.876;10.674;2023-07-30T00:29:17;8.07;;;4.85;;
72785;SDS011;60902;53.876;10.674;2023-07-30T00:29:28;7.90;;;4.90;;
72785;SDS011;60902;53.876;10.674;2023-07-30T00:29:39;7.83;;;5.07;;
72785;SDS011;60902;53.876;10.674;2023-07-30T00:29:50;8.13;;;5.15;;
72785;SDS011;60902;53.876;10.674;2023-07-30T00:30:01;7.78;;;4.93;;
72785;SDS011;60902;53.876;10.674;2023-07-30T00:30:12;7.55;;;4.72;;
72785;SDS011;60902;53.876;10.674;2023-07-30T00:30:23;7.97;;;4.63;;
72785;SDS011;60902;53.876;10.674;2023-07-30T00:30:34;8.70;;;5.00;;
72785;SDS011;60902;53.876;10.674;2023-07-30T00:30:46;9.38;;;5.40;;
72785;SDS011;60902;53.876;10.674;2023-07-30T00:30:58;9.05;;;5.38;;
72785;SDS011;60902;53.876;10.674;2023-07-30T00:31:09;8.43;;;5.18;;
72785;SDS011;60902;53.876;10.674;2023-07-30T00:31:20;7.70;;;5.22;;
72785;SDS011;60902;53.876;10.674;2023-07-30T00:31:30;8.93;;;6.27;;
72785;SDS011;60902;53.876;10.674;2023-07-30T00:31:41;10.25;;;6.82;;
72785;SDS011;60902;53.876;10.674;2023-07-30T00:31:52;10.38;;;6.75;;
72785;SDS011;60902;53.876;10.674;2023-07-30T00:32:03;9.77;;;6.35;;
72785;SDS011;60902;53.876;10.674;2023-07-30T00:32:15;9.47;;;5.93;;
72785;SDS011;60902;53.876;10.674;2023-07-30T00:32:27;9.17;;;5.83;;
72785;SDS011;60902;53.876;10.674;2023-07-30T00:32:38;8.15;;;5.25;;
72785;SDS011;60902;53.876;10.674;2023-07-30T00:32:53;7.82;;;5.32;;
72785;SDS011;60902;53.876;10.674;2023-07-30T00:33:04;8.27;;;5.50;;
72785;SDS011;60902;53.876;10.674;2023-07-30T00:33:15;8.30;;;5.47;;
72785;SDS011;60902;53.876;10.674;2023-07-30T00:33:25;8.48;;;5.45;;
72785;SDS011;60902;53.876;10.674;2023-07-30T00:33:36;7.88;;;5.03;;
72785;SDS011;60902;53.876;10.674;2023-07-30T00:33:47;7.93;;;4.95;;
72785;SDS011;60902;53.876;10.674;2023-07-30T00:33:58;7.88;;;4.88;;
72785;SDS011;60902;53.876;10.674;2023-07-30T00:34:09;8.18;;;4.90;;
72785;SDS011;60902;53.876;10.674;2023-07-30T00:34:20;8.23;;;4.93;;
72785;SDS011;60902;53.876;10.674;2023-07-30T00:34:30;8.15;;;5.03;;
72785;SDS011;60902;53.876;10.674;2023-07-30T00:34:42;8.02;;;5.10;;
72785;SDS011;60902;53.876;10.674;2023-07-30T00:34:53;8.00;;;5.13;;
72785;SDS011;60902;53.876;10.674;2023-07-30T00:35:04;8.13;;;5.23;;
72785;SDS011;60902;53.876;10.674;2023-07-30T00:35:16;8.23;;;5.47;;
72785;SDS011;60902;53.876;10.674;2023-07-30T00:35:27;8.15;;;5.25;;
72785;SDS011;60902;53.876;10.674;2023-07-30T00:35:38;8.15;;;4.95;;
72785;SDS011;60902;53.876;10.674;2023-07-30T00:35:50;8.40;;;5.10;;
72785;SDS011;60902;53.876;10.674;2023-07-30T00:36:01;8.85;;;5.30;;
72785;SDS011;60902;53.876;10.674;2023-07-30T00:36:13;8.60;;;5.13;;
72785;SDS011;60902;53.876;10.674;2023-07-30T00:36:24;9.00;;;5.38;;
72785;SDS011;60902;53.876;10.674;2023-07-30T00:36:35;8.57;;;5.13;;
72785;SDS011;60902;53.876;10.674;2023-07-30T00:36:46;8.02;;;4.85;;
72785;SDS011;60902;53.876;10.674;2023-07-30T00:36:57;7.95;;;4.78;;
72785;SDS011;60902;53.876;10.674;2023-07-30T00:37:07;9.23;;;4.87;;
72785;SDS011;60902;53.876;10.674;2023-07-30T00:37:18;10.02;;;5.05;;
72785;SDS011;60902;53.876;10.674;2023-07-30T00:37:29;9.10;;;4.85;;
72785;SDS011;60902;53.876;10.674;2023-07-30T00:37:40;8.27;;;4.63;;
72785;SDS011;60902;53.876;10.674;2023-07-30T00:37:51;7.75;;;4.55;;
72785;SDS011;60902;53.876;10.674;2023-07-30T00:38:02;8.07;;;4.57;;
72785;SDS011;60902;53.876;10.674;2023-07-30T00:38:13;8.55;;;4.55;;
72785;SDS011;60902;53.876;10.674;2023-07-30T00:38:26;8.13;;;4.28;;
72785;SDS011;60902;53.876;10.674;2023-07-30T00:38:37;7.28;;;4.22;;
72785;SDS011;60902;53.876;10.674;2023-07-30T00:38:48;7.50;;;4.50;;
72785;SDS011;60902;53.876;10.674;2023-07-30T00:38:59;7.75;;;4.80;;
72785;SDS011;60902;53.876;10.674;2023-07-30T00:39:10;8.30;;;5.00;;
72785;SDS011;60902;53.876;10.674;2023-07-30T00:39:21;8.50;;;5.15;;
72785;SDS011;60902;53.876;10.674;2023-07-30T00:39:32;8.93;;;5.25;;
72785;SDS011;60902;53.876;10.674;2023-07-30T00:39:43;8.88;;;5.35;;
72785;SDS011;60902;53.876;10.674;2023-07-30T00:39:53;8.55;;;4.95;;
72785;SDS011;60902;53.876;10.674;2023-07-30T00:40:05;8.93;;;4.95;;
72785;SDS011;60902;53.876;10.674;2023-07-30T00:40:18;9.00;;;5.20;;
72785;SDS011;60902;53.876;10.674;2023-07-30T00:40:29;9.02;;;5.38;;
72785;SDS011;60902;53.876;10.674;2023-07-30T00:40:40;8.05;;;5.03;;
72785;SDS011;60902;53.876;10.674;2023-07-30T00:40:51;7.47;;;4.78;;
72785;SDS011;60902;53.876;10.674;2023-07-30T00:41:02;7.75;;;5.05;;
72785;SDS011;60902;53.876;10.674;2023-07-30T00:41:12;7.88;;;5.05;;
72785;SDS011;60902;53.876;10.674;2023-07-30T00:41:23;8.30;;;5.18;;
72785;SDS011;60902;53.876;10.674;2023-07-30T00:41:34;8.27;;;5.20;;
72785;SDS011;60902;53.876;10.674;2023-07-30T00:41:46;8.20;;;5.05;;
72785;SDS011;60902;53.876;10.674;2023-07-30T00:41:57;7.55;;;4.78;;
72785;SDS011;60902;53.876;10.674;2023-07-30T00:42:08;7.63;;;4.50;;
72785;SDS011;60902;53.876;10.674;2023-07-30T01:37:17;13.00;;;7.93;;
72785;SDS011;60902;53.876;10.674;2023-07-30T01:37:29;13.45;;;8.13;;
72785;SDS011;60902;53.876;10.674;2023-07-30T01:37:40;14.65;;;8.20;;
72785;SDS011;60902;53.876;10.674;2023-07-30T01:37:52;13.90;;;8.10;;
72785;SDS011;60902;53.876;10.674;2023-07-30T01:38:04;13.13;;;7.63;;
72785;SDS011;60902;53.876;10.674;2023-07-30T01:38:17;11.95;;;7.35;;
72785;SDS011;60902;53.876;10.674;2023-07-30T01:38:28;11.73;;;7.03;;
72785;SDS011;60902;53.876;10.674;2023-07-30T01:38:40;11.88;;;7.28;;
72785;SDS011;60902;53.876;10.674;2023-07-30T01:38:52;12.05;;;7.10;;
72785;SDS011;60902;53.876;10.674;2023-07-30T01:39:03;11.88;;;7.40;;
72785;SDS011;60902;53.876;10.674;2023-07-30T01:39:14;12.02;;;7.30;;
72785;SDS011;60902;53.876;10.674;2023-07-30T01:39:27;11.50;;;7.20;;
72785;SDS011;60902;53.876;10.674;2023-07-30T01:39:39;11.05;;;6.80;;
72785;SDS011;60902;53.876;10.674;2023-07-30T01:39:52;11.35;;;6.57;;
72785;SDS011;60902;53.876;10.674;2023-07-30T01:40:04;12.15;;;6.57;;
72785;SDS011;60902;53.876;10.674;2023-07-30T01:40:16;12.75;;;6.80;;
72785;SDS011;60902;53.876;10.674;2023-07-30T01:40:27;12.15;;;6.95;;
72785;SDS011;60902;53.876;10.674;2023-07-30T01:40:38;11.90;;;7.32;;
72785;SDS011;60902;53.876;10.674;2023-07-30T01:40:49;10.95;;;7.28;;
72785;SDS011;60902;53.876;10.674;2023-07-30T01:41:00;10.68;;;7.03;;
72785;SDS011;60902;53.876;10.674;2023-07-30T01:41:12;10.70;;;6.65;;
72785;SDS011;60902;53.876;10.674;2023-07-30T01:41:23;11.02;;;6.60;;
72785;SDS011;60902;53.876;10.674;2023-07-30T01:41:34;10.55;;;6.25;;
72785;SDS011;60902;53.876;10.674;2023-07-30T01:41:45;10.95;;;6.85;;
72785;SDS011;60902;53.876;10.674;2023-07-30T01:41:56;10.93;;;7.10;;
72785;SDS011;60902;53.876;10.674;2023-07-30T01:42:07;10.80;;;7.03;;
72785;SDS011;60902;53.876;10.674;2023-07-30T01:42:18;9.70;;;6.25;;
72785;SDS011;60902;53.876;10.674;2023-07-30T01:42:29;10.43;;;6.28;;
72785;SDS011;60902;53.876;10.674;2023-07-30T01:42:40;11.07;;;7.07;;
72785;SDS011;60902;53.876;10.674;2023-07-30T01:42:52;11.98;;;7.80;;
72785;SDS011;60902;53.876;10.674;2023-07-30T01:43:03;11.48;;;7.47;;
72785;SDS011;60902;53.876;10.674;2023-07-30T01:43:14;10.85;;;6.95;;
72785;SDS011;60902;53.876;10.674;2023-07-30T01:43:25;10.93;;;6.85;;
72785;SDS011;60902;53.876;10.674;2023-07-30T01:43:36;10.97;;;6.67;;
72785;SDS011;60902;53.876;10.674;2023-07-30T01:43:47;10.40;;;6.53;;
72785;SDS011;60902;53.876;10.674;2023-07-30T01:43:58;10.00;;;6.68;;
72785;SDS011;60902;53.876;10.674;2023-07-30T01:44:09;10.70;;;6.97;;
72785;SDS011;60902;53.876;10.674;2023-07-30T01:44:20;10.90;;;6.93;;
72785;SDS011;60902;53.876;10.674;2023-07-30T01:44:31;11.85;;;7.25;;
72785;SDS011;60902;53.876;10.674;2023-07-30T01:44:41;11.40;;;7.28;;
72785;SDS011;60902;53.876;10.674;2023-07-30T01:44:53;11.13;;;6.97;;
72785;SDS011;60902;53.876;10.674;2023-07-30T01:45:05;11.57;;;7.05;;
72785;SDS011;60902;53.876;10.674;2023-07-30T01:45:16;11.93;;;7.10;;
72785;SDS011;60902;53.876;10.674;2023-07-30T01:45:27;11.52;;;6.78;;
72785;SDS011;60902;53.876;10.674;2023-07-30T01:45:38;10.63;;;6.40;;
72785;SDS011;60902;53.876;10.674;2023-07-30T01:45:50;10.88;;;7.05;;
72785;SDS011;60902;53.876;10.674;2023-07-30T01:46:01;11.90;;;7.60;;
72785;SDS011;60902;53.876;10.674;2023-07-30T01:46:12;12.53;;;7.77;;
72785;SDS011;60902;53.876;10.674;2023-07-30T01:46:23;12.35;;;7.70;;
72785;SDS011;60902;53.876;10.674;2023-07-30T01:46:35;11.75;;;7.47;;
72785;SDS011;60902;53.876;10.674;2023-07-30T01:46:46;10.63;;;6.97;;
72785;SDS011;60902;53.876;10.674;2023-07-30T01:46:57;10.65;;;7.07;;
72785;SDS011;60902;53.876;10.674;2023-07-30T01:47:07;10.87;;;7.13;;
72785;SDS011;60902;53.876;10.674;2023-07-30T01:47:18;11.00;;;7.10;;
72785;SDS011;60902;53.876;10.674;2023-07-30T01:47:29;10.70;;;6.82;;
72785;SDS011;60902;53.876;10.674;2023-07-30T01:47:40;11.10;;;6.88;;
72785;SDS011;60902;53.876;10.674;2023-07-30T01:47:51;10.73;;;6.90;;
72785;SDS011;60902;53.876;10.674;2023-07-30T01:48:02;10.67;;;7.10;;
72785;SDS011;60902;53.876;10.674;2023-07-30T01:48:14;10.63;;;7.15;;
72785;SDS011;60902;53.876;10.674;2023-07-30T01:48:25;11.80;;;7.28;;
72785;SDS011;60902;53.876;10.674;2023-07-30T01:48:35;11.20;;;6.85;;
72785;SDS011;60902;53.876;10.674;2023-07-30T01:48:46;11.48;;;7.03;;
72785;SDS011;60902;53.876;10.674;2023-07-30T01:48:57;12.05;;;7.50;;
72785;SDS011;60902;53.876;10.674;2023-07-30T01:49:08;13.25;;;8.25;;
72785;SDS011;60902;53.876;10.674;2023-07-30T01:49:19;13.57;;;8.38;;
72785;SDS011;60902;53.876;10.674;2023-07-30T01:49:30;13.03;;;7.93;;
72785;SDS011;60902;53.876;10.674;2023-07-30T01:49:41;12.57;;;7.53;;
72785;SDS011;60902;53.876;10.674;2023-07-30T01:49:53;12.07;;;7.20;;
72785;SDS011;60902;53.876;10.674;2023-07-30T01:50:04;12.18;;;7.53;;
72785;SDS011;60902;53.876;10.674;2023-07-30T01:50:15;11.65;;;7.32;;
72785;SDS011;60902;53.876;10.674;2023-07-30T01:50:28;11.63;;;7.40;;
72785;SDS011;60902;53.876;10.674;2023-07-30T01:50:38;11.27;;;7.03;;
72785;SDS011;60902;53.876;10.674;2023-07-30T01:50:49;10.40;;;6.78;;
72785;SDS011;60902;53.876;10.674;2023-07-30T01:51:00;9.98;;;6.60;;
72785;SDS011;60902;53.876;10.674;2023-07-30T01:51:11;9.93;;;6.60;;
72785;SDS011;60902;53.876;10.674;2023-07-30T01:51:22;10.18;;;6.57;;
72785;SDS011;60902;53.876;10.674;2023-07-30T01:51:33;10.18;;;6.68;;
72785;SDS011;60902;53.876;10.674;2023-07-30T01:51:43;10.00;;;6.57;;
72785;SDS011;60902;53.876;10.674;2023-07-30T01:51:54;10.48;;;6.50;;
72785;SDS011;60902;53.876;10.674;2023-07-30T01:52:05;11.13;;;6.70;;
72785;SDS011;60902;53.876;10.674;2023-07-30T01:52:19;10.93;;;6.88;;
72785;SDS011;60902;53.876;10.674;2023-07-30T01:52:30;11.18;;;6.85;;
72785;SDS011;60902;53.876;10.674;2023-07-30T01:52:41;11.10;;;6.82;;
72785;SDS011;60902;53.876;10.674;2023-07-30T01:52:51;11.83;;;7.03;;
72785;SDS011;60902;53.876;10.674;2023-07-30T01:53:02;11.60;;;7.07;;
72785;SDS011;60902;53.876;10.674;2023-07-30T01:53:13;11.18;;;7.00;;
72785;SDS011;60902;53.876;10.674;2023-07-30T01:53:24;10.45;;;6.70;;
72785;SDS011;60902;53.876;10.674;2023-07-30T01:53:35;10.60;;;6.47;;
72785;SDS011;60902;53.876;10.674;2023-07-30T01:53:46;10.68;;;6.45;;
72785;SDS011;60902;53.876;10.674;2023-07-30T01:53:58;10.82;;;6.75;;
72785;SDS011;60902;53.876;10.674;2023-07-30T01:54:08;11.32;;;7.22;;
72785;SDS011;60902;53.876;10.674;2023-07-30T01:54:19;11.85;;;7.63;;
72785;SDS011;60902;53.876;10.674;2023-07-30T01:54:30;11.95;;;7.60;;
72785;SDS011;60902;53.876;10.674;2023-07-30T01:54:41;11.88;;;7.15;;
72785;SDS011;60902;53.876;10.674;2023-07-30T01:54:52;12.02;;;7.38;;
72785;SDS011;60902;53.876;10.674;2023-07-30T01:55:03;11.25;;;7.25;;
72785;SDS011;60902;53.876;10.674;2023-07-30T01:55:15;11.45;;;7.22;;
72785;SDS011;60902;53.876;10.674;2023-07-30T01:55:25;11.38;;;6.93;;
72785;SDS011;60902;53.876;10.674;2023-07-30T01:55:36;11.38;;;6.85;;
72785;SDS011;60902;53.876;10.674;2023-07-30T01:55:49;10.90;;;6.88;;
72785;SDS011;60902;53.876;10.674;2023-07-30T01:56:00;10.98;;;6.80;;
72785;SDS011;60902;53.876;10.674;2023-07-30T01:56:10;11.63;;;6.82;;
72785;SDS011;60902;53.876;10.674;2023-07-30T01:56:21;12.20;;;6.65;;
72785;SDS011;60902;53.876;10.674;2023-07-30T01:56:32;12.07;;;6.80;;
72785;SDS011;60902;53.876;10.674;2023-07-30T01:56:43;10.70;;;6.40;;
72785;SDS011;60902;53.876;10.674;2023-07-30T01:56:54;9.98;;;6.45;;
72785;SDS011;60902;53.876;10.674;2023-07-30T01:57:05;9.77;;;6.20;;
72785;SDS011;60902;53.876;10.674;2023-07-30T01:57:16;11.15;;;6.68;;
72785;SDS011;60902;53.876;10.674;2023-07-30T01:57:28;11.32;;;6.93;;
72785;SDS011;60902;53.876;10.674;2023-07-30T01:57:38;10.77;;;6.82;;
72785;SDS011;60902;53.876;10.674;2023-07-30T01:57:49;10.30;;;6.47;;
72785;SDS011;60902;53.876;10.674;2023-07-30T01:58:00;9.88;;;6.22;;
72785;SDS011;60902;53.876;10.674;2023-07-30T01:58:11;10.30;;;6.22;;
72785;SDS011;60902;53.876;10.674;2023-07-30T01:58:22;10.50;;;6.75;;
72785;SDS011;60902;53.876;10.674;2023-07-30T01:58:33;10.40;;;6.65;;
72785;SDS011;60902;53.876;10.674;2023-07-30T01:58:44;10.38;;;6.45;;
72785;SDS011;60902;53.876;10.674;2023-07-30T01:58:55;10.43;;;6.18;;
72785;SDS011;60902;53.876;10.674;2023-07-30T01:59:05;10.83;;;6.40;;
72785;SDS011;60902;53.876;10.674;2023-07-30T01:59:16;10.75;;;6.68;;
72785;SDS011;60902;53.876;10.674;2023-07-30T01:59:28;10.40;;;6.75;;
72785;SDS011;60902;53.876;10.674;2023-07-30T01:59:39;10.50;;;6.55;;
72785;SDS011;60902;53.876;10.674;2023-07-30T01:59:50;10.13;;;6.60;;
72785;SDS011;60902;53.876;10.674;2023-07-30T02:00:01;10.52;;;6.60;;
72785;SDS011;60902;53.876;10.674;2023-07-30T02:00:13;10.52;;;6.63;;
72785;SDS011;60902;53.876;10.674;2023-07-30T02:00:24;10.70;;;6.67;;
72785;SDS011;60902;53.876;10.674;2023-07-30T02:00:35;10.57;;;6.60;;
72785;SDS011;60902;53.876;10.674;2023-07-30T02:00:46;9.85;;;6.25;;
72785;SDS011;60902;53.876;10.674;2023-07-30T02:00:57;9.93;;;6.13;;